EJU3LD EDDM-EDDF
Flight info
| Callsign | EJU3LD |
|---|---|
| Flight time | 0h 41m |
| Altitude | 24000 |
| Route | EDDF GIVM6E Y101 DEBH1A EDDM |
| Aircraft | A20N/M-VGDW/C |
Departure
| Time | 2026-05-04 15:32 |
|---|---|
| Airport | Munich Airport (EDDM) |
Arrival
| Time | 2026-05-04 16:14 |
|---|---|
| Airport | Frankfurt Main Airport (EDDF) |
| Time | Latitude | Longitude | Altitude | Speed | Heading |
|---|---|---|---|---|---|
| 2026-05-04 15:01 | 48.35003 | 11.78382 | 1469 ft | 0 kts | 83° |
| 2026-05-04 15:24 | 48.35003 | 11.78383 | 1469 ft | 0 kts | 83° |
| 2026-05-04 15:24 | 48.34999 | 11.78335 | 1464 ft | 2 kts | 83° |
| 2026-05-04 15:25 | 48.34997 | 11.78310 | 1458 ft | 2 kts | 83° |
| 2026-05-04 15:25 | 48.34996 | 11.78286 | 1458 ft | 2 kts | 81° |
| 2026-05-04 15:25 | 48.34990 | 11.78264 | 1458 ft | 2 kts | 32° |
| 2026-05-04 15:26 | 48.34982 | 11.78258 | 1459 ft | 0 kts | 355° |
| 2026-05-04 15:28 | 48.35047 | 11.78249 | 1463 ft | 12 kts | 354° |
| 2026-05-04 15:28 | 48.35145 | 11.78234 | 1462 ft | 16 kts | 354° |
| 2026-05-04 15:28 | 48.35372 | 11.78147 | 1464 ft | 17 kts | 286° |
| 2026-05-04 15:29 | 48.35368 | 11.77960 | 1463 ft | 19 kts | 262° |
| 2026-05-04 15:30 | 48.35684 | 11.77762 | 1467 ft | 7 kts | 353° |
| 2026-05-04 15:30 | 48.36028 | 11.77664 | 1468 ft | 21 kts | 354° |
| 2026-05-04 15:31 | 48.36200 | 11.77807 | 1464 ft | 27 kts | 53° |
| 2026-05-04 15:31 | 48.36321 | 11.78057 | 1458 ft | 31 kts | 53° |
| 2026-05-04 15:32 | 48.36614 | 11.81054 | 1626 ft | 201 kts | 82° |
| 2026-05-04 15:32 | 48.37101 | 11.85716 | 2831 ft | 239 kts | 63° |
| 2026-05-04 15:33 | 48.39844 | 11.87661 | 4983 ft | 235 kts | 353° |
| 2026-05-04 15:34 | 48.43835 | 11.83406 | 6918 ft | 245 kts | 308° |
| 2026-05-04 15:34 | 48.44901 | 11.81394 | 7007 ft | 246 kts | 307° |
| 2026-05-04 15:34 | 48.47283 | 11.77009 | 7784 ft | 301 kts | 308° |
| 2026-05-04 15:35 | 48.50096 | 11.72002 | 9999 ft | 321 kts | 308° |
| 2026-05-04 15:35 | 48.51559 | 11.69416 | 11073 ft | 328 kts | 307° |
| 2026-05-04 15:35 | 48.53055 | 11.66773 | 12134 ft | 335 kts | 307° |
| 2026-05-04 15:36 | 48.55619 | 11.62242 | 13920 ft | 347 kts | 307° |
| 2026-05-04 15:36 | 48.57196 | 11.59453 | 14932 ft | 352 kts | 307° |
| 2026-05-04 15:36 | 48.58790 | 11.56630 | 15983 ft | 355 kts | 307° |
| 2026-05-04 15:37 | 48.60400 | 11.53776 | 17017 ft | 359 kts | 307° |
| 2026-05-04 15:37 | 48.62032 | 11.50878 | 17993 ft | 364 kts | 306° |
| 2026-05-04 15:37 | 48.63696 | 11.47916 | 18632 ft | 376 kts | 306° |
| 2026-05-04 15:37 | 48.65423 | 11.44839 | 19143 ft | 390 kts | 307° |
| 2026-05-04 15:38 | 48.67195 | 11.41682 | 19856 ft | 397 kts | 307° |
| 2026-05-04 15:38 | 48.69003 | 11.38469 | 20664 ft | 401 kts | 308° |
| 2026-05-04 15:38 | 48.71043 | 11.35484 | 21488 ft | 408 kts | 317° |
| 2026-05-04 15:38 | 48.73285 | 11.32871 | 22171 ft | 417 kts | 321° |
| 2026-05-04 15:39 | 48.75758 | 11.30315 | 22545 ft | 433 kts | 323° |
| 2026-05-04 15:39 | 48.78297 | 11.27835 | 22851 ft | 447 kts | 324° |
| 2026-05-04 15:39 | 48.83663 | 11.22568 | 23417 ft | 470 kts | 320° |
| 2026-05-04 15:40 | 48.86213 | 11.19389 | 23723 ft | 477 kts | 317° |
| 2026-05-04 15:40 | 48.88738 | 11.16088 | 24130 ft | 480 kts | 316° |
| 2026-05-04 15:40 | 48.91231 | 11.12688 | 24240 ft | 481 kts | 315° |
| 2026-05-04 15:40 | 48.93695 | 11.09249 | 24059 ft | 482 kts | 314° |
| 2026-05-04 15:41 | 48.96153 | 11.05781 | 23959 ft | 483 kts | 314° |
| 2026-05-04 15:41 | 48.98621 | 11.02287 | 23960 ft | 483 kts | 314° |
| 2026-05-04 15:41 | 49.01085 | 10.98802 | 23963 ft | 484 kts | 314° |
| 2026-05-04 15:41 | 49.03554 | 10.95315 | 23972 ft | 484 kts | 314° |
| 2026-05-04 15:42 | 49.06023 | 10.91834 | 23971 ft | 484 kts | 314° |
| 2026-05-04 15:42 | 49.08498 | 10.88344 | 23972 ft | 484 kts | 314° |
| 2026-05-04 15:42 | 49.10967 | 10.84858 | 23969 ft | 484 kts | 314° |
| 2026-05-04 15:42 | 49.13442 | 10.81359 | 23984 ft | 484 kts | 314° |
| 2026-05-04 15:43 | 49.15910 | 10.77865 | 23981 ft | 484 kts | 314° |
| 2026-05-04 15:43 | 49.18377 | 10.74366 | 23983 ft | 484 kts | 314° |
| 2026-05-04 15:43 | 49.20789 | 10.70795 | 23983 ft | 483 kts | 312° |
| 2026-05-04 15:43 | 49.23146 | 10.67111 | 23986 ft | 483 kts | 311° |
| 2026-05-04 15:44 | 49.25462 | 10.63451 | 23980 ft | 484 kts | 311° |
| 2026-05-04 15:44 | 49.27805 | 10.59743 | 23982 ft | 484 kts | 311° |
| 2026-05-04 15:44 | 49.30149 | 10.56035 | 23980 ft | 484 kts | 311° |
| 2026-05-04 15:44 | 49.32490 | 10.52329 | 23980 ft | 484 kts | 311° |
| 2026-05-04 15:45 | 49.34826 | 10.48614 | 23981 ft | 484 kts | 310° |
| 2026-05-04 15:45 | 49.36964 | 10.44658 | 23983 ft | 481 kts | 304° |
| 2026-05-04 15:45 | 49.38919 | 10.40498 | 23986 ft | 480 kts | 302° |
| 2026-05-04 15:45 | 49.40829 | 10.36309 | 23986 ft | 480 kts | 302° |
| 2026-05-04 15:46 | 49.42739 | 10.32100 | 23984 ft | 480 kts | 302° |
| 2026-05-04 15:46 | 49.44638 | 10.27915 | 23993 ft | 480 kts | 302° |
| 2026-05-04 15:46 | 49.46553 | 10.23694 | 23988 ft | 481 kts | 302° |
| 2026-05-04 15:46 | 49.48465 | 10.19475 | 23989 ft | 482 kts | 302° |
| 2026-05-04 15:47 | 49.50382 | 10.15242 | 23992 ft | 482 kts | 302° |
| 2026-05-04 15:47 | 49.52402 | 10.11148 | 23899 ft | 478 kts | 308° |
| 2026-05-04 15:47 | 49.54848 | 10.07740 | 23148 ft | 474 kts | 321° |
| 2026-05-04 15:47 | 49.57713 | 10.05173 | 21823 ft | 478 kts | 330° |
| 2026-05-04 15:48 | 49.60695 | 10.02926 | 20685 ft | 476 kts | 331° |
| 2026-05-04 15:48 | 49.63661 | 10.00742 | 19734 ft | 469 kts | 332° |
| 2026-05-04 15:48 | 49.69486 | 9.96460 | 18101 ft | 467 kts | 332° |
| 2026-05-04 15:49 | 49.72383 | 9.94329 | 18318 ft | 457 kts | 332° |
| 2026-05-04 15:49 | 49.75246 | 9.92225 | 18411 ft | 454 kts | 332° |
| 2026-05-04 15:49 | 49.78100 | 9.90127 | 18502 ft | 453 kts | 332° |
| 2026-05-04 15:49 | 49.80947 | 9.88033 | 18589 ft | 454 kts | 332° |
| 2026-05-04 15:50 | 49.83755 | 9.85966 | 18676 ft | 454 kts | 332° |
| 2026-05-04 15:50 | 49.86600 | 9.83867 | 18773 ft | 454 kts | 332° |
| 2026-05-04 15:50 | 49.89446 | 9.81764 | 18847 ft | 443 kts | 332° |
| 2026-05-04 15:50 | 49.92172 | 9.79761 | 18459 ft | 426 kts | 332° |
| 2026-05-04 15:51 | 49.94832 | 9.77809 | 17605 ft | 421 kts | 332° |
| 2026-05-04 15:51 | 49.97475 | 9.75870 | 16734 ft | 417 kts | 332° |
| 2026-05-04 15:51 | 50.00084 | 9.73956 | 15897 ft | 413 kts | 332° |
| 2026-05-04 15:51 | 50.02666 | 9.72059 | 15090 ft | 408 kts | 333° |
| 2026-05-04 15:52 | 50.05220 | 9.70181 | 14312 ft | 404 kts | 333° |
| 2026-05-04 15:52 | 50.07746 | 9.68321 | 13507 ft | 400 kts | 333° |
| 2026-05-04 15:52 | 50.10246 | 9.66480 | 12637 ft | 396 kts | 333° |
| 2026-05-04 15:52 | 50.12724 | 9.64657 | 11812 ft | 392 kts | 333° |
| 2026-05-04 15:53 | 50.15178 | 9.62850 | 10963 ft | 388 kts | 333° |
| 2026-05-04 15:53 | 50.17606 | 9.61064 | 10156 ft | 385 kts | 333° |
| 2026-05-04 15:53 | 50.20018 | 9.59290 | 9292 ft | 380 kts | 333° |
| 2026-05-04 15:53 | 50.22338 | 9.57382 | 8531 ft | 373 kts | 323° |
| 2026-05-04 15:54 | 50.24141 | 9.54583 | 7855 ft | 363 kts | 303° |
| 2026-05-04 15:54 | 50.25243 | 9.51100 | 7049 ft | 354 kts | 287° |
| 2026-05-04 15:54 | 50.25697 | 9.47390 | 6258 ft | 345 kts | 270° |
| 2026-05-04 15:54 | 50.25594 | 9.43677 | 5517 ft | 340 kts | 264° |
| 2026-05-04 15:55 | 50.25380 | 9.39985 | 5276 ft | 341 kts | 264° |
| 2026-05-04 15:55 | 50.25148 | 9.36333 | 5033 ft | 334 kts | 264° |
| 2026-05-04 15:55 | 50.24910 | 9.32734 | 4996 ft | 333 kts | 263° |
| 2026-05-04 15:55 | 50.24615 | 9.29171 | 4987 ft | 322 kts | 260° |
| 2026-05-04 15:56 | 50.24223 | 9.25889 | 4982 ft | 294 kts | 259° |
| 2026-05-04 15:56 | 50.23835 | 9.22837 | 4990 ft | 283 kts | 259° |
| 2026-05-04 15:56 | 50.23460 | 9.19834 | 4994 ft | 282 kts | 258° |
| 2026-05-04 15:56 | 50.23118 | 9.16809 | 4994 ft | 283 kts | 258° |
| 2026-05-04 15:57 | 50.22786 | 9.13811 | 4992 ft | 283 kts | 258° |
| 2026-05-04 15:57 | 50.22373 | 9.10804 | 4991 ft | 283 kts | 252° |
| 2026-05-04 15:57 | 50.21772 | 9.07879 | 4996 ft | 283 kts | 250° |
| 2026-05-04 15:57 | 50.21149 | 9.04966 | 4996 ft | 283 kts | 251° |
| 2026-05-04 15:58 | 50.20587 | 9.02116 | 4955 ft | 266 kts | 251° |
| 2026-05-04 15:58 | 50.20069 | 8.99424 | 4777 ft | 254 kts | 251° |
| 2026-05-04 15:58 | 50.19564 | 8.96823 | 4417 ft | 250 kts | 252° |
| 2026-05-04 15:58 | 50.19073 | 8.94241 | 4080 ft | 246 kts | 254° |
| 2026-05-04 15:59 | 50.18613 | 8.91738 | 3987 ft | 232 kts | 253° |
| 2026-05-04 15:59 | 50.18175 | 8.89368 | 3992 ft | 226 kts | 253° |
| 2026-05-04 15:59 | 50.17707 | 8.87045 | 3990 ft | 225 kts | 250° |
| 2026-05-04 15:59 | 50.17122 | 8.84773 | 3988 ft | 226 kts | 246° |
| 2026-05-04 16:00 | 50.16381 | 8.82608 | 3989 ft | 226 kts | 234° |
| 2026-05-04 16:00 | 50.15387 | 8.80717 | 3956 ft | 224 kts | 229° |
| 2026-05-04 16:00 | 50.14342 | 8.78906 | 3615 ft | 225 kts | 229° |
| 2026-05-04 16:00 | 50.13223 | 8.77207 | 3282 ft | 226 kts | 224° |
| 2026-05-04 16:01 | 50.12111 | 8.75483 | 3031 ft | 224 kts | 236° |
| 2026-05-04 16:01 | 50.11612 | 8.73225 | 3121 ft | 228 kts | 271° |
| 2026-05-04 16:01 | 50.12084 | 8.70825 | 3935 ft | 241 kts | 304° |
| 2026-05-04 16:01 | 50.13338 | 8.69113 | 4989 ft | 241 kts | 332° |
| 2026-05-04 16:02 | 50.14969 | 8.68566 | 5645 ft | 247 kts | 2° |
| 2026-05-04 16:02 | 50.16635 | 8.69335 | 5948 ft | 253 kts | 32° |
| 2026-05-04 16:02 | 50.18801 | 8.73540 | 5995 ft | 252 kts | 63° |
| 2026-05-04 16:03 | 50.19660 | 8.75925 | 5993 ft | 253 kts | 63° |
| 2026-05-04 16:03 | 50.20515 | 8.78325 | 5956 ft | 252 kts | 64° |
| 2026-05-04 16:03 | 50.21363 | 8.80713 | 5655 ft | 250 kts | 63° |
| 2026-05-04 16:03 | 50.22192 | 8.83091 | 5326 ft | 248 kts | 63° |
| 2026-05-04 16:04 | 50.23007 | 8.85462 | 4993 ft | 248 kts | 63° |
| 2026-05-04 16:04 | 50.24597 | 8.90192 | 4370 ft | 245 kts | 63° |
| 2026-05-04 16:04 | 50.25371 | 8.92558 | 4087 ft | 244 kts | 64° |
| 2026-05-04 16:05 | 50.26127 | 8.94907 | 3986 ft | 241 kts | 63° |
| 2026-05-04 16:05 | 50.26623 | 8.97388 | 3981 ft | 235 kts | 89° |
| 2026-05-04 16:05 | 50.25222 | 9.01277 | 3985 ft | 200 kts | 160° |
| 2026-05-04 16:06 | 50.23930 | 9.01482 | 3975 ft | 182 kts | 199° |
| 2026-05-04 16:06 | 50.20959 | 8.98988 | 3811 ft | 186 kts | 200° |
| 2026-05-04 16:07 | 50.19299 | 8.98248 | 3473 ft | 188 kts | 198° |
| 2026-05-04 16:07 | 50.15941 | 8.95224 | 3001 ft | 195 kts | 238° |
| 2026-05-04 16:08 | 50.15161 | 8.93491 | 2996 ft | 196 kts | 237° |
| 2026-05-04 16:08 | 50.12930 | 8.88243 | 3000 ft | 192 kts | 249° |
| 2026-05-04 16:09 | 50.12034 | 8.84520 | 3003 ft | 181 kts | 251° |
| 2026-05-04 16:09 | 50.11180 | 8.80956 | 2993 ft | 171 kts | 252° |
| 2026-05-04 16:10 | 50.10347 | 8.77513 | 2603 ft | 168 kts | 251° |
| 2026-05-04 16:11 | 50.09092 | 8.72258 | 2999 ft | 171 kts | 253° |
| 2026-05-04 16:11 | 50.08678 | 8.70517 | 2858 ft | 172 kts | 252° |
| 2026-05-04 16:12 | 50.07422 | 8.65253 | 2069 ft | 171 kts | 251° |
| 2026-05-04 16:12 | 50.06196 | 8.60118 | 1344 ft | 166 kts | 251° |
| 2026-05-04 16:13 | 50.05366 | 8.56706 | 880 ft | 158 kts | 251° |
| 2026-05-04 16:13 | 50.04663 | 8.53751 | 528 ft | 135 kts | 256° |
| 2026-05-04 16:14 | 50.04117 | 8.51462 | 352 ft | 49 kts | 250° |
| 2026-05-04 16:14 | 50.03974 | 8.51019 | 356 ft | 26 kts | 226° |
| 2026-05-04 16:15 | 50.03753 | 8.50859 | 352 ft | 15 kts | 166° |
| 2026-05-04 16:16 | 50.03797 | 8.51023 | 352 ft | 22 kts | 62° |
| 2026-05-04 16:16 | 50.04035 | 8.51979 | 354 ft | 29 kts | 70° |
| 2026-05-04 16:17 | 50.04179 | 8.52585 | 354 ft | 30 kts | 69° |
| 2026-05-04 16:18 | 50.04392 | 8.53488 | 349 ft | 23 kts | 79° |
| 2026-05-04 16:18 | 50.04411 | 8.53743 | 356 ft | 24 kts | 83° |
| 2026-05-04 16:19 | 50.04450 | 8.54453 | 352 ft | 25 kts | 94° |
| 2026-05-04 16:19 | 50.04335 | 8.54750 | 352 ft | 0 kts | 148° |
| 2026-05-04 16:20 | 50.04280 | 8.54799 | 355 ft | 16 kts | 156° |
| 2026-05-04 16:20 | 50.04077 | 8.54909 | 353 ft | 0 kts | 160° |
| 2026-05-04 16:21 | 50.04073 | 8.54911 | 354 ft | 5 kts | 160° |
| 2026-05-04 16:22 | 50.03859 | 8.55053 | 354 ft | 13 kts | 122° |
| 2026-05-04 16:22 | 50.03899 | 8.55322 | 351 ft | 5 kts | 69° |
| 2026-05-04 16:23 | 50.04050 | 8.55952 | 350 ft | 0 kts | 70° |
| 2026-05-04 16:24 | 50.04058 | 8.55984 | 352 ft | 9 kts | 70° |
| 2026-05-04 16:25 | 50.04158 | 8.56403 | 355 ft | 28 kts | 69° |
| 2026-05-04 16:26 | 50.04472 | 8.57711 | 358 ft | 38 kts | 70° |
| 2026-05-04 16:26 | 50.04810 | 8.57899 | 350 ft | 0 kts | 332° |
| 2026-05-04 16:27 | 50.04825 | 8.57947 | 356 ft | 16 kts | 88° |
| 2026-05-04 16:28 | 50.04944 | 8.58647 | 353 ft | 22 kts | 68° |
| 2026-05-04 16:28 | 50.05085 | 8.59211 | 355 ft | 3 kts | 45° |
| 2026-05-04 16:29 | 50.05178 | 8.59185 | 353 ft | 0 kts | 339° |